Flight Track Log - Related Links

Times and Time Zones

All times are in EDT time to prevent confusion due to time zone crossing. See the WJA1213 flight status page for this flight to view local times or setup timezone preferences in your user account.

Time Position Orientation Groundspeed Altitude Reporting Facility
EDT Latitude Longitude Course Direction KTS MPH feet Rate Location/Type
Thu 05:31:38 PM 40.7667 -73.8500 123° Southeast 158 182 1,700  Level New York TRACON
Thu 05:32:39 PM 40.7333 -73.7833 123° Southeast 243 280 4,600 2,529 Climbing New York TRACON
Thu 05:33:39 PM 40.7833 -73.7833 360° North 253 291 6,800 3,050 Climbing New York TRACON
Thu 05:34:39 PM 40.8333 -73.8500 315° West 250 288 10,700 3,150 Climbing New York TRACON
Thu 05:35:39 PM 40.8833 -73.9333 308° West 312 359 13,100 2,200 Climbing New York TRACON
Thu 05:36:39 PM 40.9333 -74.0333 304° West 328 377 15,100 1,000 Climbing New York TRACON
Thu 05:37:39 PM 40.9833 -74.1167 308° West 323 372 15,100 200 Level New York TRACON
Thu 05:38:39 PM 41.0667 -74.1833 329° Northwest 336 387 15,500 500 Climbing New York TRACON
Thu 05:39:39 PM 41.1500 -74.1500 17° North 316 364 16,100 349 Climbing New York TRACON
Thu 05:40:05 PM 41.1758 -74.1450 North 312 359 16,000 -70 Descending New York Center
Thu 05:41:05 PM 41.2500 -74.1764 342° North 321 369 16,000  Level New York Center
Thu 05:42:07 PM 41.3022 -74.2369 319° Northwest 288 331 16,000 50 Level New York Center
Thu 05:43:04 PM 41.3728 -74.3181 319° Northwest 301 346 16,100 1,576 Climbing New York Center
Thu 05:44:05 PM 41.4328 -74.4042 313° West 306 352 19,100 3,000 Climbing New York Center
Thu 05:45:06 PM 41.4794 -74.5064 301° West 318 366 22,200 3,049 Climbing New York Center
Thu 05:46:07 PM 41.5175 -74.6194 294° West 330 380 25,300 2,727 Climbing New York Center
Thu 05:47:07 PM 41.5681 -74.7303 301° West 337 388 27,700 2,308 Climbing New York Center
Thu 05:48:04 PM 41.6181 -74.8500 299° West 356 410 29,800 1,169 Climbing New York Center
Thu 05:49:05 PM 41.6700 -74.9697 300° West 368 423 30,000 98 Climbing New York Center
Thu 05:50:06 PM 41.7200 -75.0894 299° West 373 429 30,000  Level New York Center
Thu 05:51:05 PM 41.7739 -75.2097 301° West 373 429 30,000  Level New York Center
Thu 05:52:06 PM 41.8233 -75.3300 299° West 373 429 30,000  Level New York Center
Thu 05:53:07 PM 41.8728 -75.4503 299° West 373 429 30,000  Level New York Center
Thu 05:54:07 PM 41.9222 -75.5681 299° West 373 429 30,000  Level New York Center
Thu 05:55:05 PM 41.9714 -75.6889 299° West 373 429 30,000  Level New York Center
Thu 05:56:05 PM 42.0206 -75.8069 299° West 367 422 30,000  Level New York Center
Thu 05:57:06 PM 42.0697 -75.9253 299° West 367 422 30,000  Level New York Center
Thu 05:58:07 PM 42.1186 -76.0408 300° West 367 422 30,000  Level New York Center
Thu 05:59:21 PM 42.1744 -76.1950 296° West 381 438 30,000  Level Cleveland Center
Thu 06:00:21 PM 42.2167 -76.3211 294° West 376 433 30,000  Level Cleveland Center
Thu 06:01:21 PM 42.2544 -76.4450 292° West 365 420 30,000  Level Cleveland Center
Thu 06:02:21 PM 42.2942 -76.5658 294° West 365 420 30,000  Level Cleveland Center
Thu 06:03:21 PM 42.3319 -76.6900 292° West 365 420 30,000  Level Cleveland Center
Thu 06:04:21 PM 42.3714 -76.8139 293° West 365 420 30,000  Level Cleveland Center
Thu 06:05:21 PM 42.4108 -76.9356 294° West 365 420 30,000  Level Cleveland Center
Thu 06:06:21 PM 42.4481 -77.0572 293° West 365 420 30,000  Level Cleveland Center
Thu 06:07:21 PM 42.4872 -77.1789 294° West 360 414 30,000  Level Cleveland Center
Thu 06:08:21 PM 42.5261 -77.3036 293° West 360 414 30,000  Level Cleveland Center
Thu 06:09:21 PM 42.5631 -77.4258 292° West 360 414 30,000  Level Cleveland Center
Thu 06:10:21 PM 42.6017 -77.5508 293° West 360 414 30,000  Level Cleveland Center
Thu 06:11:21 PM 42.6361 -77.6706 291° West 355 409 30,000  Level Cleveland Center
Thu 06:12:21 PM 42.6767 -77.7956 294° West 355 409 30,000  Level Cleveland Center
Thu 06:13:21 PM 42.7106 -77.9072 292° West 355 409 30,000 -400 Level Cleveland Center
Thu 06:14:21 PM 42.7467 -78.0300 292° West 355 409 29,200 -900 Descending Cleveland Center
Thu 06:15:21 PM 42.7847 -78.1531 293° West 355 409 28,200 -1,000 Descending Cleveland Center
Thu 06:16:21 PM 42.8206 -78.2761 292° West 350 403 27,200 -1,000 Descending Cleveland Center
Thu 06:17:21 PM 42.8564 -78.3939 293° West 350 403 26,200 -1,000 Descending Cleveland Center
Thu 06:18:21 PM 42.8919 -78.5144 292° West 350 403 25,200 -1,000 Descending Cleveland Center
Thu 06:19:21 PM 42.9253 -78.6297 292° West 350 403 24,200 -1,000 Descending Cleveland Center
Thu 06:20:21 PM 42.9747 -78.7358 303° West 340 391 23,200 -1,148 Descending Cleveland Center
Thu 06:22:24 PM 43.0833 -78.9333 307° West 320 368 20,700 -1,508 Descending Toronto Center
Thu 06:23:24 PM 43.1333 -79.0333 304° West 320 368 18,600 -1,800 Descending Toronto Center
Thu 06:24:24 PM 43.1833 -79.1333 304° West 310 357 17,100 -1,650 Descending Toronto Center
Thu 06:25:24 PM 43.2333 -79.2167 309° West 280 322 15,300 -1,700 Descending Toronto Center
Thu 06:26:24 PM 43.2667 -79.2833 304° West 280 322 13,700 -1,600 Descending Toronto Center
Thu 06:27:24 PM 43.3333 -79.3500 324° Northwest 260 299 12,100 -850 Descending Toronto Center
Thu 06:28:24 PM 43.4000 -79.3833 340° North 260 299 12,000 -50 Descending Toronto Center
Thu 06:29:24 PM 43.4667 -79.4000 350° North 230 265 12,000  Level Toronto Center
Thu 06:30:24 PM 43.5167 -79.3833 14° North 240 276 12,000 -650 Level Toronto Center
Thu 06:31:24 PM 43.5833 -79.3500 20° North 240 276 10,700 -1,400 Descending Toronto Center
Thu 06:32:24 PM 43.6000 -79.4333 285° West 220 253 9,200 -1,400 Descending Toronto Center
Thu 06:33:24 PM 43.5833 -79.5167 255° West 220 253 7,900 -1,000 Descending Toronto Center
Thu 06:34:24 PM 43.5500 -79.5833 235° Southwest 220 253 7,200 -900 Descending Toronto Center
Thu 06:35:24 PM 43.5167 -79.6333 227° Southwest 200 230 6,100 -1,250 Descending Toronto Center
Thu 06:36:24 PM 43.4833 -79.6833 227° Southwest 200 230 4,700 -1,350 Descending Toronto Center
Thu 06:37:24 PM 43.5000 -79.7500 289° West 180 207 3,400 -850 Descending Toronto Center
Thu 06:38:24 PM 43.5500 -79.7500 360° North 180 207 3,000 -550 Descending Toronto Center
Thu 06:39:24 PM 43.5833 -79.6833 55° Northeast 180 207 2,300 -750 Descending Toronto Center
Thu 06:40:24 PM 43.6167 -79.6500 36° Northeast 160 184 1,500 -800 Descending Toronto Center
Thu 06:41:24 PM 43.6500 -79.6167 36° Northeast 140 161 700 -800 Descending Toronto Center

Login

Don't have an account? Register now (free) for customized features, flight alerts, and more!